Time;durP1;ratioP1;P1;durP2;ratioP2;P2;SDS_P1;SDS_P2;PMS_P1;PMS_P2;Temp;Humidity;BMP_temperature;BMP_pressure;BME280_temperature;BME280_humidity;BME280_pressure;Samples;Min_cycle;Max_cycle;Signal;HPM_P1;HPM_P2
2023/01/04 00:00:53;;;;;;;3.75;2.08;;;;;;;4.96;100.00;101483.44;5243306;28;20047;-74
2023/01/04 00:03:23;;;;;;;3.70;1.80;;;;;;;5.02;100.00;101480.91;5249832;28;20108;-74
2023/01/04 00:05:57;;;;;;;5.13;2.15;;;;;;;4.93;100.00;101472.22;5251047;28;20409;-74
2023/01/04 00:08:27;;;;;;;6.65;1.70;;;;;;;4.86;100.00;101461.00;5249411;28;20047;-74
2023/01/04 00:11:01;;;;;;;4.68;1.90;;;;;;;4.73;100.00;101450.59;5248907;28;20036;-74
2023/01/04 00:13:32;;;;;;;5.80;1.98;;;;;;;4.60;100.00;101452.31;5233393;28;20093;-73
2023/01/04 00:16:05;;;;;;;4.63;1.90;;;;;;;4.55;100.00;101460.91;5248624;28;20963;-75
2023/01/04 00:18:36;;;;;;;8.40;2.13;;;;;;;4.54;100.00;101456.59;5253042;28;20024;-76
2023/01/04 00:21:23;;;;;;;5.82;2.05;;;;;;;4.67;100.00;101448.88;5251871;28;20091;-75
2023/01/04 00:23:57;;;;;;;3.95;1.88;;;;;;;4.58;100.00;101440.22;5245780;28;20016;-75
2023/01/04 00:26:29;;;;;;;5.78;1.90;;;;;;;4.60;100.00;101438.53;5250275;28;20264;-76
2023/01/04 00:29:03;;;;;;;5.75;1.95;;;;;;;4.57;100.00;101430.72;5232974;28;20086;-73
2023/01/04 00:31:33;;;;;;;7.40;1.70;;;;;;;4.43;100.00;101433.28;5227719;28;20056;-73
2023/01/04 00:34:05;;;;;;;7.22;2.03;;;;;;;4.40;100.00;101435.00;5253924;28;20125;-77
2023/01/04 00:36:35;;;;;;;6.28;2.08;;;;;;;4.41;100.00;101428.97;5252549;28;20034;-74
2023/01/04 00:39:06;;;;;;;7.93;2.03;;;;;;;4.51;100.00;101426.44;5244503;28;20020;-74
2023/01/04 00:41:37;;;;;;;7.25;2.15;;;;;;;4.62;100.00;101427.28;5250607;28;20020;-76
2023/01/04 00:44:08;;;;;;;5.82;1.75;;;;;;;4.68;100.00;101421.28;5234993;28;20032;-74
2023/01/04 00:46:39;;;;;;;3.40;1.60;;;;;;;4.76;100.00;101416.94;5236070;28;20030;-73
2023/01/04 00:49:11;;;;;;;5.93;1.58;;;;;;;4.67;100.00;101410.03;5233414;28;20576;-74
2023/01/04 00:51:41;;;;;;;5.55;1.60;;;;;;;4.57;100.00;101415.19;5223781;28;20032;-76
2023/01/04 00:54:14;;;;;;;10.95;1.90;;;;;;;4.65;100.00;101404.00;5245758;28;20211;-74
2023/01/04 00:56:44;;;;;;;6.30;1.88;;;;;;;4.72;100.00;101404.88;5238327;28;20663;-76
2023/01/04 00:59:17;;;;;;;4.85;1.55;;;;;;;4.86;100.00;101396.28;5247758;28;20115;-75
2023/01/04 01:01:48;;;;;;;10.40;1.80;;;;;;;4.96;100.00;101379.84;5247712;28;20393;-74
2023/01/04 01:04:22;;;;;;;4.50;1.60;;;;;;;4.93;100.00;101381.56;5251971;28;20370;-76
2023/01/04 01:06:53;;;;;;;4.30;1.73;;;;;;;4.78;100.00;101381.59;5253060;28;20097;-75
2023/01/04 01:09:23;;;;;;;7.50;1.85;;;;;;;4.76;100.00;101371.22;5250902;28;20101;-75
2023/01/04 01:11:53;;;;;;;7.63;2.10;;;;;;;4.67;100.00;101378.13;5249691;28;20025;-75
2023/01/04 01:14:24;;;;;;;8.55;2.00;;;;;;;4.59;100.00;101362.59;5239163;28;20028;-78
2023/01/04 01:16:55;;;;;;;5.80;1.95;;;;;;;4.46;100.00;101366.00;5250383;28;20021;-74
2023/01/04 01:19:27;;;;;;;6.00;2.05;;;;;;;4.47;100.00;101361.72;5246969;28;20023;-74
2023/01/04 01:21:58;;;;;;;5.13;2.08;;;;;;;4.45;100.00;101347.91;5249315;28;20183;-76
2023/01/04 01:24:28;;;;;;;7.00;1.95;;;;;;;4.53;100.00;101336.72;5251493;28;20020;-74
2023/01/04 01:26:58;;;;;;;6.13;2.70;;;;;;;4.52;100.00;101339.28;5253290;28;20028;-74
2023/01/04 01:29:29;;;;;;;6.50;2.10;;;;;;;4.52;100.00;101322.03;5247198;28;20111;-74
2023/01/04 01:31:59;;;;;;;8.23;2.30;;;;;;;4.49;100.00;101337.53;5228723;28;20020;-72
2023/01/04 01:34:29;;;;;;;4.63;2.08;;;;;;;4.51;100.00;101322.91;5230981;28;20066;-74
2023/01/04 01:37:01;;;;;;;9.05;3.08;;;;;;;4.71;100.00;101305.66;5232303;28;20237;-71
2023/01/04 01:39:31;;;;;;;8.30;2.47;;;;;;;4.66;100.00;101320.28;5236262;28;20033;-73
2023/01/04 01:42:02;;;;;;;7.47;1.60;;;;;;;4.67;100.00;101319.44;5232459;28;20036;-72
2023/01/04 01:44:41;;;;;;;4.20;1.55;;;;;;;4.64;100.00;101313.41;5252411;28;20032;-71
2023/01/04 01:47:16;;;;;;;3.28;1.55;;;;;;;4.75;100.00;101299.59;5254607;28;20026;-73
2023/01/04 01:49:50;;;;;;;5.47;1.48;;;;;;;4.62;100.00;101297.88;5228877;28;20378;-73
2023/01/04 01:52:26;;;;;;;5.93;1.67;;;;;;;4.64;100.00;101288.38;5244002;28;20029;-72
2023/01/04 01:55:03;;;;;;;7.03;1.60;;;;;;;4.70;100.00;101288.41;5252589;28;20028;-75
2023/01/04 01:57:36;;;;;;;6.13;1.30;;;;;;;4.90;100.00;101291.81;5252125;28;20044;-71
2023/01/04 02:00:11;;;;;;;5.40;1.55;;;;;;;4.79;100.00;101275.44;5224034;28;20017;-73
2023/01/04 02:02:53;;;;;;;5.25;1.40;;;;;;;4.64;100.00;101274.59;5251205;28;20046;-72
2023/01/04 02:05:25;;;;;;;4.68;1.42;;;;;;;4.58;100.00;101269.41;5249079;28;20052;-72
2023/01/04 02:07:56;;;;;;;6.28;1.60;;;;;;;4.54;100.00;101267.69;5252642;28;20523;-71
2023/01/04 02:10:27;;;;;;;4.57;1.80;;;;;;;4.58;100.00;101262.50;5246015;28;20342;-71
2023/01/04 02:13:01;;;;;;;9.95;1.85;;;;;;;4.59;100.00;101259.06;5234239;28;20024;-74
2023/01/04 02:15:47;;;;;;;10.73;2.40;;;;;;;4.86;100.00;101252.97;5251921;28;20031;-72
2023/01/04 02:18:24;;;;;;;7.53;2.05;;;;;;;5.33;100.00;101239.00;5246782;28;20028;-74
2023/01/04 02:21:02;;;;;;;5.25;1.73;;;;;;;5.49;100.00;101232.91;5229388;28;20111;-72
2023/01/04 02:24:11;;;;;;;6.30;1.40;;;;;;;5.59;100.00;101219.88;5249523;22;20068;-72
2023/01/04 02:27:04;;;;;;;5.00;1.90;;;;;;;5.67;100.00;101222.44;5224443;28;20032;-73
2023/01/04 02:29:46;;;;;;;5.05;1.50;;;;;;;5.83;100.00;101216.31;5209603;28;20072;-73
2023/01/04 02:32:29;;;;;;;6.25;1.77;;;;;;;5.82;100.00;101199.03;5228396;28;20042;-72
2023/01/04 02:35:00;;;;;;;5.28;1.75;;;;;;;5.77;100.00;101198.19;5230900;28;20554;-72
2023/01/04 02:37:37;;;;;;;6.32;2.00;;;;;;;5.88;100.00;101196.44;5228356;28;20167;-72
2023/01/04 02:40:27;;;;;;;4.53;1.60;;;;;;;6.00;100.00;101178.16;5229069;28;20031;-72
2023/01/04 02:46:07;;;;;;;6.38;1.85;;;;;;;6.05;100.00;101164.28;5223534;28;20029;-72
2023/01/04 02:51:31;;;;;;;5.50;1.95;;;;;;;6.09;100.00;101146.97;5222032;28;20406;-73
2023/01/04 02:54:31;;;;;;;4.88;1.77;;;;;;;6.20;100.00;101142.53;5223804;28;20041;-73
2023/01/04 02:57:15;;;;;;;6.18;2.00;;;;;;;6.23;100.00;101143.38;5198703;28;20047;-74
2023/01/04 03:00:10;;;;;;;6.03;1.65;;;;;;;6.32;100.00;101137.25;5220104;28;20028;-72
2023/01/04 03:09:11;;;;;;;6.75;2.25;;;;;;;6.30;100.00;101102.66;5222226;28;20051;-72
2023/01/04 03:14:43;;;;;;;10.07;2.00;;;;;;;6.37;100.00;101104.31;5229385;28;20032;-72
2023/01/04 03:17:16;;;;;;;7.65;2.05;;;;;;;6.44;100.00;101080.03;5223283;28;20082;-73
2023/01/04 03:19:51;;;;;;;5.00;2.03;;;;;;;6.59;100.00;101080.69;5231717;28;20397;-73
2023/01/04 03:36:57;;;;;;;6.95;1.85;;;;;;;6.94;100.00;101042.16;5227927;28;20102;-72
2023/01/04 03:48:38;;;;;;;4.28;1.63;;;;;;;7.14;100.00;101018.50;5208341;28;20070;-72
2023/01/04 03:51:17;;;;;;;4.65;1.70;;;;;;;7.11;100.00;101013.34;5223949;28;20087;-72
2023/01/04 03:53:51;;;;;;;6.32;1.77;;;;;;;7.16;100.00;101011.53;5229037;28;20119;-72
2023/01/04 03:56:24;;;;;;;3.40;1.45;;;;;;;7.14;100.00;100993.34;5233596;28;20388;-73
2023/01/04 03:58:54;;;;;;;7.28;1.73;;;;;;;7.16;100.00;100994.22;5226115;28;20033;-72
2023/01/04 04:01:26;;;;;;;5.97;1.67;;;;;;;7.28;100.00;100986.22;5232725;28;20028;-72
2023/01/04 04:09:34;;;;;;;6.25;1.50;;;;;;;7.31;100.00;100968.81;5229635;28;20090;-72
2023/01/04 04:12:04;;;;;;;5.57;1.60;;;;;;;7.46;100.00;100957.31;5234017;28;20025;-74
2023/01/04 04:14:35;;;;;;;4.50;1.35;;;;;;;7.61;100.00;100947.53;5233347;28;20136;-73
2023/01/04 04:17:05;;;;;;;4.82;1.45;;;;;;;7.72;100.00;100937.75;5234359;28;20020;-73
2023/01/04 04:19:35;;;;;;;6.88;1.80;;;;;;;7.84;100.00;100934.94;5229222;28;20017;-72
2023/01/04 04:22:06;;;;;;;5.50;1.23;;;;;;;7.82;100.00;100939.31;5226640;28;20107;-72
2023/01/04 04:24:36;;;;;;;5.18;1.50;;;;;;;7.84;100.00;100932.34;5228192;28;20032;-72
2023/01/04 04:27:06;;;;;;;3.53;1.30;;;;;;;7.95;100.00;100919.13;5229725;28;20028;-72
2023/01/04 04:29:37;;;;;;;7.85;1.77;;;;;;;7.92;100.00;100925.25;5229821;28;20033;-72
2023/01/04 04:32:07;;;;;;;6.00;1.52;;;;;;;7.97;100.00;100913.00;5235314;28;20576;-72
2023/01/04 04:34:37;;;;;;;3.17;1.30;;;;;;;7.96;100.00;100907.81;5214473;28;20063;-72
2023/01/04 04:37:08;;;;;;;4.65;1.20;;;;;;;7.90;100.00;100895.78;5229957;28;20076;-72
2023/01/04 04:39:38;;;;;;;5.28;1.40;;;;;;;7.85;100.00;100908.03;5234996;28;20082;-72
2023/01/04 04:42:08;;;;;;;5.28;1.65;;;;;;;7.87;100.00;100889.81;5232028;28;20510;-72
2023/01/04 04:44:39;;;;;;;4.68;1.20;;;;;;;7.89;100.00;100894.06;5231161;28;20082;-73
2023/01/04 04:47:09;;;;;;;6.88;1.40;;;;;;;7.91;100.00;100873.22;5231604;28;20102;-73
2023/01/04 04:49:39;;;;;;;3.85;1.52;;;;;;;7.88;100.00;100870.69;5230909;28;20087;-72
2023/01/04 04:52:09;;;;;;;3.15;1.20;;;;;;;7.85;100.00;100866.41;5226341;28;20079;-72
2023/01/04 04:54:40;;;;;;;5.80;1.20;;;;;;;7.96;100.00;100864.44;5210088;28;20124;-72
2023/01/04 04:57:10;;;;;;;5.85;1.30;;;;;;;7.95;100.00;100861.88;5230567;28;20025;-71
2023/01/04 04:59:40;;;;;;;6.57;1.27;;;;;;;7.95;100.00;100861.88;5228203;28;20345;-72
2023/01/04 05:02:10;;;;;;;6.45;1.40;;;;;;;8.04;100.00;100857.31;5233914;28;20488;-72
2023/01/04 05:04:41;;;;;;;4.43;1.20;;;;;;;7.97;100.00;100855.75;5229925;28;20029;-72
2023/01/04 05:07:11;;;;;;;5.68;1.35;;;;;;;7.98;100.00;100857.47;5227400;28;20124;-72
2023/01/04 05:09:41;;;;;;;3.78;1.40;;;;;;;7.99;100.00;100853.09;5223313;28;20367;-72
2023/01/04 05:15:01;;;;;;;4.75;1.35;;;;;;;7.96;100.00;100835.81;5229976;28;20559;-72
2023/01/04 05:17:32;;;;;;;4.45;1.15;;;;;;;7.95;100.00;100815.03;5195921;28;20036;-73
2023/01/04 05:20:03;;;;;;;4.68;1.50;;;;;;;7.91;100.00;100816.81;5208117;28;20283;-72
2023/01/04 05:22:33;;;;;;;5.70;1.40;;;;;;;7.92;100.00;100809.91;5213107;28;20264;-72
2023/01/04 05:25:04;;;;;;;6.63;1.42;;;;;;;7.87;100.00;100804.78;5214817;28;20031;-72
2023/01/04 05:27:35;;;;;;;5.35;1.33;;;;;;;7.78;100.00;100818.00;5231567;28;20036;-72
2023/01/04 05:33:03;;;;;;;3.05;1.45;;;;;;;7.71;100.00;100805.97;5197766;28;20522;-72
2023/01/04 05:35:34;;;;;;;5.45;1.50;;;;;;;7.79;100.00;100788.50;5231473;28;20513;-73
2023/01/04 05:38:04;;;;;;;6.57;1.50;;;;;;;7.74;100.00;100790.31;5229575;28;20025;-72
2023/01/04 05:40:34;;;;;;;6.78;1.40;;;;;;;7.66;100.00;100787.03;5231120;28;20029;-73
2023/01/04 05:43:04;;;;;;;5.65;1.60;;;;;;;7.68;100.00;100780.03;5233409;28;20103;-73
2023/01/04 05:45:35;;;;;;;4.57;1.58;;;;;;;7.69;100.00;100762.69;5230805;28;20036;-72
2023/01/04 05:48:06;;;;;;;5.65;1.70;;;;;;;7.71;100.00;100763.53;5226114;28;20078;-72
2023/01/04 05:50:36;;;;;;;5.72;1.52;;;;;;;7.70;100.00;100746.19;5227334;28;20515;-73
2023/01/04 05:53:07;;;;;;;4.45;1.50;;;;;;;7.77;100.00;100732.16;5225002;28;20155;-72
2023/01/04 05:55:37;;;;;;;2.90;1.50;;;;;;;7.65;100.00;100732.41;5223434;28;20479;-73
2023/01/04 05:58:08;;;;;;;5.47;1.75;;;;;;;7.78;100.00;100726.94;5220281;28;20398;-72
2023/01/04 06:00:38;;;;;;;4.00;1.23;;;;;;;7.74;100.00;100716.63;5229986;28;20120;-72
2023/01/04 06:03:09;;;;;;;7.95;1.65;;;;;;;7.87;100.00;100716.31;5225984;28;20075;-72
2023/01/04 06:05:39;;;;;;;3.80;1.25;;;;;;;7.76;100.00;100710.50;5226798;28;20028;-71
2023/01/04 06:08:09;;;;;;;6.18;1.75;;;;;;;7.78;100.00;100711.34;5233770;28;20115;-72
2023/01/04 06:10:40;;;;;;;3.30;1.27;;;;;;;7.86;100.00;100718.97;5224399;28;20179;-72
2023/01/04 06:13:10;;;;;;;3.55;1.35;;;;;;;7.93;100.00;100699.72;5231562;28;20056;-73
2023/01/04 06:15:40;;;;;;;3.72;1.42;;;;;;;7.90;100.00;100687.63;5223785;28;20021;-73
2023/01/04 06:18:12;;;;;;;3.13;1.48;;;;;;;7.98;100.00;100659.69;5224893;28;20413;-73
2023/01/04 06:20:45;;;;;;;3.22;1.40;;;;;;;7.99;100.00;100668.34;5232313;28;20035;-72
2023/01/04 06:23:16;;;;;;;6.13;1.60;;;;;;;8.02;100.00;100648.31;5224501;28;20037;-72
2023/01/04 06:25:46;;;;;;;9.25;1.90;;;;;;;7.98;100.00;100638.88;5225754;28;20460;-72
2023/01/04 06:28:16;;;;;;;3.90;1.52;;;;;;;7.98;100.00;100638.88;5229181;28;20293;-72
2023/01/04 06:30:46;;;;;;;5.07;1.80;;;;;;;7.93;100.00;100645.06;5227566;28;20103;-73
2023/01/04 06:33:17;;;;;;;5.82;1.80;;;;;;;7.94;100.00;100650.25;5221206;28;20150;-73
2023/01/04 06:35:54;;;;;;;6.78;1.73;;;;;;;7.97;100.00;100647.56;5225815;28;20142;-72
2023/01/04 06:38:25;;;;;;;6.72;1.75;;;;;;;7.93;100.00;100632.94;5227216;28;20040;-72
2023/01/04 06:40:56;;;;;;;4.18;1.70;;;;;;;7.88;100.00;100620.91;5213139;28;20070;-72
2023/01/04 06:43:26;;;;;;;5.80;2.15;;;;;;;7.84;100.00;100625.34;5229643;28;20097;-72
2023/01/04 06:45:56;;;;;;;4.35;1.88;;;;;;;7.80;100.00;100618.50;5227459;28;20037;-73
2023/01/04 06:48:27;;;;;;;6.07;1.83;;;;;;;7.86;100.00;100610.53;5212756;28;20067;-73
2023/01/04 06:50:57;;;;;;;5.47;1.50;;;;;;;7.95;100.00;100618.13;5226323;28;20490;-72
2023/01/04 06:53:27;;;;;;;4.88;1.90;;;;;;;7.95;100.00;100612.06;5222658;28;20032;-72
2023/01/04 06:55:58;;;;;;;4.30;1.60;;;;;;;7.92;100.00;100592.19;5229260;28;20375;-72
2023/01/04 06:58:28;;;;;;;6.40;2.00;;;;;;;8.01;100.00;100591.94;5230505;28;20120;-72
2023/01/04 07:00:58;;;;;;;6.00;1.80;;;;;;;8.05;100.00;100595.34;5230148;28;20083;-73
2023/01/04 07:03:29;;;;;;;5.97;1.83;;;;;;;8.03;100.00;100590.16;5220056;28;20025;-72
2023/01/04 07:06:04;;;;;;;4.88;1.80;;;;;;;8.06;100.00;100582.28;5224076;28;20059;-73
2023/01/04 07:08:35;;;;;;;5.15;1.60;;;;;;;8.06;100.00;100568.41;5226003;28;20025;-72
2023/01/04 07:11:05;;;;;;;4.88;2.00;;;;;;;8.09;100.00;100566.59;5204937;28;20084;-72
2023/01/04 07:13:36;;;;;;;4.95;1.88;;;;;;;8.12;100.00;100548.31;5224703;28;20056;-72
2023/01/04 07:16:06;;;;;;;3.20;1.70;;;;;;;8.12;100.00;100548.31;5226657;28;20029;-72
2023/01/04 07:18:37;;;;;;;3.63;1.70;;;;;;;8.12;100.00;100530.09;5231322;28;20401;-72
2023/01/04 07:21:07;;;;;;;4.22;1.75;;;;;;;8.20;100.00;100535.97;5225493;28;20028;-73
2023/01/04 07:23:37;;;;;;;3.45;1.63;;;;;;;8.12;100.00;100532.69;5221174;28;20039;-73
2023/01/04 07:26:08;;;;;;;5.53;1.85;;;;;;;8.21;100.00;100526.41;5228633;28;20087;-73
2023/01/04 07:31:27;;;;;;;3.22;1.80;;;;;;;8.26;100.00;100525.41;5223210;28;20498;-72
2023/01/04 07:33:57;;;;;;;2.67;1.50;;;;;;;8.30;100.00;100532.22;5219397;28;20033;-73
2023/01/04 07:36:27;;;;;;;2.95;1.48;;;;;;;8.36;100.00;100531.22;5225089;28;20392;-72
2023/01/04 07:38:59;;;;;;;3.70;1.60;;;;;;;8.34;100.00;100526.03;5212416;28;20020;-73
2023/01/04 07:41:29;;;;;;;4.18;1.90;;;;;;;8.30;100.00;100532.22;5212971;28;20025;-72
2023/01/04 07:44:00;;;;;;;4.30;1.80;;;;;;;8.34;100.00;100539.06;5230368;28;20020;-72
2023/01/04 07:46:31;;;;;;;2.35;1.30;;;;;;;8.34;100.00;100538.19;5222642;28;20037;-73
2023/01/04 07:49:02;;;;;;;2.88;1.63;;;;;;;8.38;100.00;100527.66;5230642;28;20021;-73
2023/01/04 07:51:33;;;;;;;5.18;1.80;;;;;;;8.36;100.00;100532.03;5226924;28;20126;-73
2023/01/04 07:54:04;;;;;;;3.67;1.50;;;;;;;8.42;100.00;100533.63;5211172;28;20101;-74
2023/01/04 07:56:34;;;;;;;4.68;1.60;;;;;;;8.41;100.00;100531.94;5224975;28;20043;-73
2023/01/04 07:59:08;;;;;;;3.35;1.70;;;;;;;8.40;100.00;100528.47;5230753;28;20032;-73
2023/01/04 08:01:39;;;;;;;2.63;1.40;;;;;;;8.37;100.00;100544.16;5228700;28;20063;-73
2023/01/04 08:04:11;;;;;;;5.85;1.75;;;;;;;8.48;100.00;100515.22;5222932;28;20020;-74
2023/01/04 08:06:45;;;;;;;4.00;1.60;;;;;;;8.48;100.00;100507.41;5228324;28;20108;-72
2023/01/04 08:09:16;;;;;;;3.63;1.70;;;;;;;8.46;100.00;100522.22;5223645;28;20047;-73
2023/01/04 08:11:47;;;;;;;2.67;1.60;;;;;;;8.45;100.00;100510.97;5229240;28;20087;-73
2023/01/04 08:14:17;;;;;;;4.72;1.75;;;;;;;8.46;100.00;100528.31;5229064;28;20032;-73
2023/01/04 08:16:47;;;;;;;3.20;1.70;;;;;;;8.54;100.00;100535.91;5230442;28;20067;-73
2023/01/04 08:19:20;;;;;;;2.90;1.70;;;;;;;8.56;100.00;100537.56;5228608;28;20099;-73
2023/01/04 08:21:50;;;;;;;3.10;1.40;;;;;;;8.54;100.00;100536.75;5225317;28;20033;-73
2023/01/04 08:24:21;;;;;;;4.05;1.80;;;;;;;8.52;100.00;100528.13;5226867;22;20033;-75
2023/01/04 08:26:51;;;;;;;3.00;1.70;;;;;;;8.61;100.00;100527.00;5227607;28;20386;-76
2023/01/04 08:29:21;;;;;;;2.70;1.70;;;;;;;8.60;100.00;100530.50;5226484;28;20071;-77
2023/01/04 08:31:52;;;;;;;4.65;2.13;;;;;;;8.60;100.00;100535.72;5203780;28;20024;-75
2023/01/04 08:34:22;;;;;;;3.90;1.70;;;;;;;8.61;100.00;100533.09;5213007;28;20028;-74
2023/01/04 08:36:52;;;;;;;3.75;1.80;;;;;;;8.63;100.00;100527.81;5211268;28;20048;-74
2023/01/04 08:39:23;;;;;;;4.55;1.80;;;;;;;8.67;100.00;100537.25;5216126;28;20459;-74
2023/01/04 08:41:53;;;;;;;2.70;1.70;;;;;;;8.61;100.00;100538.31;5231190;28;20026;-73
2023/01/04 08:44:24;;;;;;;3.85;1.88;;;;;;;8.67;100.00;100553.75;5215054;28;20152;-74
2023/01/04 08:46:54;;;;;;;3.15;1.90;;;;;;;8.71;100.00;100547.53;5216040;28;20035;-76
2023/01/04 08:49:25;;;;;;;4.70;1.70;;;;;;;8.73;100.00;100535.31;5230869;28;20104;-74
2023/01/04 08:51:55;;;;;;;3.78;1.70;;;;;;;8.68;100.00;100534.59;5230764;28;20071;-74
2023/01/04 08:54:25;;;;;;;6.07;2.50;;;;;;;8.79;100.00;100547.31;5215490;28;20107;-74
2023/01/04 08:56:56;;;;;;;5.82;1.67;;;;;;;8.83;100.00;100539.38;5230610;28;20039;-75
2023/01/04 08:59:26;;;;;;;4.28;2.00;;;;;;;8.75;100.00;100540.50;5231627;28;20359;-76
2023/01/04 09:01:56;;;;;;;5.00;1.70;;;;;;;8.84;100.00;100548.03;5231050;28;20097;-74
2023/01/04 09:04:27;;;;;;;3.97;1.50;;;;;;;8.87;100.00;100532.34;5220537;28;20029;-73
2023/01/04 09:06:57;;;;;;;3.58;1.75;;;;;;;8.85;100.00;100547.13;5228768;28;20029;-74
2023/01/04 09:09:28;;;;;;;3.67;1.65;;;;;;;8.93;100.00;100542.56;5231176;28;20392;-74
2023/01/04 09:11:59;;;;;;;2.83;1.60;;;;;;;8.91;100.00;100540.00;5230940;28;20414;-74
2023/01/04 09:14:29;;;;;;;2.65;1.45;;;;;;;8.87;100.00;100530.56;5232571;28;20024;-74
2023/01/04 09:16:59;;;;;;;5.00;1.27;;;;;;;8.86;100.00;100525.41;5233423;28;20052;-74
2023/01/04 09:19:30;;;;;;;2.80;1.50;;;;;;;8.84;100.00;100521.97;5212306;28;20430;-74
2023/01/04 09:22:00;;;;;;;4.43;1.70;;;;;;;8.86;100.00;100513.22;5228599;28;20024;-73
2023/01/04 09:24:34;;;;;;;5.22;1.55;;;;;;;8.82;100.00;100501.19;5214252;28;20033;-76
2023/01/04 09:27:04;;;;;;;3.72;1.38;;;;;;;8.88;100.00;100497.56;5216107;28;20029;-74
2023/01/04 09:29:34;;;;;;;3.83;1.50;;;;;;;8.95;100.00;100486.91;5213498;28;20423;-74
2023/01/04 09:32:05;;;;;;;2.78;1.23;;;;;;;8.94;100.00;100489.56;5227326;28;20381;-73
2023/01/04 09:34:35;;;;;;;2.47;1.50;;;;;;;8.85;100.00;100492.41;5223592;28;20036;-75
2023/01/04 09:37:05;;;;;;;3.95;1.60;;;;;;;8.91;100.00;100489.66;5225014;28;20818;-76
2023/01/04 09:39:36;;;;;;;2.63;1.70;;;;;;;8.81;100.00;100489.06;5230663;28;20036;-77
2023/01/04 09:42:35;;;;;;;4.72;1.50;;;;;;;8.78;100.00;100480.47;5228635;28;20125;-75
2023/01/04 09:45:17;;;;;;;3.97;1.48;;;;;;;8.78;100.00;100486.56;5228371;28;20355;-74
2023/01/04 09:47:53;;;;;;;3.60;1.70;;;;;;;8.68;100.00;100479.03;5227330;28;20021;-76
2023/01/04 09:50:44;;;;;;;5.55;2.85;;;;;;;8.65;100.00;100486.94;5230672;28;20104;-74
2023/01/04 09:53:22;;;;;;;16.13;6.85;;;;;;;8.64;100.00;100480.03;5230102;28;20028;-74
2023/01/04 09:55:57;;;;;;;3.83;1.85;;;;;;;8.65;100.00;100472.19;5231253;28;20278;-76
2023/01/04 09:58:31;;;;;;;5.00;1.83;;;;;;;8.65;100.00;100473.91;5214140;28;20054;-75
2023/01/04 10:01:05;;;;;;;4.97;1.80;;;;;;;8.63;100.00;100468.78;5211014;28;20525;-76
2023/01/04 10:03:40;;;;;;;3.33;1.67;;;;;;;8.63;100.00;100479.19;5228575;28;20644;-76
2023/01/04 10:06:11;;;;;;;;;;;;;;;8.68;100.00;100466.00;5229545;28;20374;-74
2023/01/04 10:08:42;;;;;;;4.25;1.77;;;;;;;8.78;100.00;100455.28;5228178;28;19969;-75
2023/01/04 10:11:57;;;;;;;4.70;1.88;;;;;;;8.77;100.00;100465.75;5231853;28;20067;-74
2023/01/04 10:14:32;;;;;;;4.93;1.70;;;;;;;8.77;100.00;100466.63;5206516;28;20043;-74
2023/01/04 10:17:05;;;;;;;;;;;;;;;8.87;100.00;100457.59;5211925;28;20032;-75
2023/01/04 10:20:01;;;;;;;4.07;2.22;;;;;;;8.92;100.00;100445.28;5214645;28;19955;-73
2023/01/04 10:22:56;;;;;;;4.27;1.73;;;;;;;8.96;100.00;100439.09;5208440;28;20486;-74
2023/01/04 10:25:38;;;;;;;4.32;1.70;;;;;;;9.08;100.00;100443.91;5227074;28;20057;-76
2023/01/04 10:28:23;;;;;;;5.13;2.30;;;;;;;9.04;100.00;100434.47;5212117;28;20048;-73
2023/01/04 10:31:12;;;;;;;6.13;2.67;;;;;;;9.11;100.00;100422.97;5226413;28;20032;-77
2023/01/04 10:33:57;;;;;;;2.72;1.65;;;;;;;9.19;100.00;100418.34;5207027;28;20126;-74
2023/01/04 10:36:33;;;;;;;4.50;1.80;;;;;;;9.25;100.00;100434.66;5227194;28;20508;-76
2023/01/04 10:39:05;;;;;;;;;;;;;;;9.21;100.00;100419.16;5225735;28;20097;-75
2023/01/04 10:41:44;;;;;;;3.08;1.63;;;;;;;9.19;100.00;100419.22;5223899;28;19923;-75
2023/01/04 10:44:23;;;;;;;6.35;1.90;;;;;;;9.26;100.00;100409.41;5206990;28;20029;-75
2023/01/04 10:47:10;;;;;;;4.85;2.10;;;;;;;9.21;100.00;100391.34;5231255;28;20036;-76
2023/01/04 10:49:45;;;;;;;4.20;1.63;;;;;;;9.36;100.00;100389.97;5226358;28;20568;-74
2023/01/04 10:52:24;;;;;;;4.25;1.75;;;;;;;9.35;100.00;100399.53;5223743;28;20401;-74
2023/01/04 10:55:20;;;;;;;5.45;2.20;;;;;;;9.38;100.00;100395.97;5222603;28;20067;-76
2023/01/04 10:58:03;;;;;;;2.92;1.70;;;;;;;9.36;100.00;100388.22;5217727;28;20033;-74
2023/01/04 11:00:41;;;;;;;3.92;1.77;;;;;;;9.40;100.00;100387.22;5225103;28;20505;-75
2023/01/04 11:03:48;;;;;;;3.88;2.00;;;;;;;9.46;100.00;100393.97;5226238;28;20128;-76
2023/01/04 11:06:25;;;;;;;4.03;1.88;;;;;;;9.42;100.00;100393.22;5192468;28;20314;-74
2023/01/04 11:09:03;;;;;;;5.47;1.83;;;;;;;9.43;100.00;100391.44;5225297;28;20037;-75
2023/01/04 11:11:40;;;;;;;2.65;1.40;;;;;;;9.39;100.00;100382.03;5228584;28;20082;-76
2023/01/04 11:14:12;;;;;;;3.30;1.63;;;;;;;9.38;100.00;100383.81;5226673;28;20023;-74
2023/01/04 11:16:47;;;;;;;3.22;1.50;;;;;;;9.45;100.00;100379.25;5229604;28;20100;-74
2023/01/04 11:19:18;;;;;;;2.40;1.52;;;;;;;9.34;100.00;100381.34;5218310;28;20020;-76
2023/01/04 11:21:55;;;;;;;3.30;1.85;;;;;;;9.33;100.00;100383.09;5225093;28;20035;-76
2023/01/04 11:24:30;;;;;;;3.05;1.67;;;;;;;9.27;100.00;100377.22;5204759;28;20267;-75
2023/01/04 11:27:24;;;;;;;4.57;1.98;;;;;;;9.12;100.00;100371.69;5222325;28;20862;-74
2023/01/04 11:30:18;;;;;;;4.75;2.10;;;;;;;9.07;100.00;100382.25;5222219;28;20029;-75
2023/01/04 11:33:02;;;;;;;5.70;2.15;;;;;;;8.98;100.00;100377.34;5224092;28;20020;-74
2023/01/04 11:35:42;;;;;;;4.40;1.95;;;;;;;8.87;100.00;100366.41;5226233;28;20036;-75
2023/01/04 11:38:16;;;;;;;4.40;1.98;;;;;;;8.82;100.00;100355.28;5228833;28;20027;-75
2023/01/04 11:41:06;;;;;;;3.60;1.85;;;;;;;8.88;100.00;100362.91;5226099;28;20032;-77
2023/01/04 11:43:38;;;;;;;3.90;1.85;;;;;;;8.88;100.00;100355.06;5231076;28;20516;-74
2023/01/04 11:46:23;;;;;;;3.83;1.90;;;;;;;9.01;100.00;100351.19;5226807;28;20033;-74
2023/01/04 11:48:54;;;;;;;3.40;1.70;;;;;;;9.02;100.00;100350.28;5203794;28;20027;-76
2023/01/04 11:51:27;;;;;;;4.13;1.90;;;;;;;9.21;100.00;100348.75;5208792;28;20021;-74
2023/01/04 11:53:59;;;;;;;4.32;2.10;;;;;;;9.26;100.00;100331.19;5222128;28;20445;-74
2023/01/04 11:56:33;;;;;;;7.68;2.13;;;;;;;9.26;100.00;100332.06;5208892;28;20068;-75
2023/01/04 11:59:15;;;;;;;5.00;1.90;;;;;;;9.28;100.00;100327.63;5224697;28;20087;-74
2023/01/04 12:01:48;;;;;;;3.47;1.60;;;;;;;9.36;100.00;100323.03;5234013;28;20585;-75
2023/01/04 12:04:25;;;;;;;3.22;1.33;;;;;;;9.45;100.00;100329.69;5207625;28;20060;-75
2023/01/04 12:07:01;;;;;;;3.67;1.30;;;;;;;9.31;100.00;100318.88;5222525;28;20025;-77
2023/01/04 12:09:31;;;;;;;3.55;1.33;;;;;;;9.38;100.00;100318.59;5209795;28;20021;-74
2023/01/04 12:12:04;;;;;;;2.92;1.15;;;;;;;9.36;100.00;100306.50;5225288;28;20027;-76
2023/01/04 12:14:38;;;;;;;1.73;1.00;;;;;;;9.41;100.00;100305.47;5213366;28;20509;-74
2023/01/04 12:17:24;;;;;;;2.30;0.85;;;;;;;9.49;100.00;100305.19;5228462;28;20050;-74
2023/01/04 12:19:56;;;;;;;3.15;1.00;;;;;;;9.36;100.00;100302.16;5231234;28;20040;-75
2023/01/04 12:22:36;;;;;;;1.65;1.00;;;;;;;9.39;100.00;100299.44;5229969;28;20513;-75
2023/01/04 12:25:21;;;;;;;2.00;1.00;;;;;;;9.32;100.00;100295.31;5232623;28;20074;-76
2023/01/04 12:27:54;;;;;;;2.97;1.13;;;;;;;9.40;100.00;100293.31;5229649;28;20017;-75
2023/01/04 12:30:40;;;;;;;1.77;0.90;;;;;;;9.45;100.00;100290.56;5227309;28;20052;-75
2023/01/04 12:33:29;;;;;;;1.95;1.02;;;;;;;9.52;100.00;100268.56;5225220;28;20029;-72
2023/01/04 12:36:05;;;;;;;1.73;0.73;;;;;;;9.45;100.00;100285.34;5216356;28;20025;-74
2023/01/04 12:38:51;;;;;;;1.38;0.90;;;;;;;9.66;100.00;100279.34;5214958;28;20025;-74
2023/01/04 12:41:34;;;;;;;1.95;0.93;;;;;;;9.58;100.00;100283.97;5226279;28;20028;-74
2023/01/04 12:44:35;;;;;;;0.98;0.70;;;;;;;9.73;100.00;100271.25;5229975;28;20111;-73
2023/01/04 12:50:11;;;;;;;1.40;0.82;;;;;;;9.71;100.00;100259.16;5226107;28;20074;-74
2023/01/04 12:52:44;;;;;;;1.23;0.80;;;;;;;9.80;100.00;100266.66;5224290;28;20055;-74
2023/01/04 12:55:30;;;;;;;1.75;1.00;;;;;;;9.78;100.00;100253.63;5227144;28;20103;-73